Terminal Aerodrome Forecast
Issued by NWS Cleveland, OH

Home | Current Version | Previous Version | Text Only | Print | Product List | Glossary On
Versions: 1 2 3 4 5 6 7 8 9 10 11 12 13 14 15 16
000
FTUS41 KCLE 221005 AAA
TAFMFD
TAF AMD
KMFD 221005Z 2210/2306 21007KT P6SM OVC060
     FM221200 21006KT 6SM BR OVC035
      TEMPO 2212/2214 3SM BR SCT020
     FM221600 18010KT 5SM BR BKN018
     FM222300 18007KT P6SM OVC035
     FM230200 20010KT 6SM BR OVC020=

USA.gov is the U.S. government's official web portal to all federal, state and local government web resources and services.